sensor_id;sensor_type;location;lat;lon;timestamp;temperature;humidity
62853;DHT22;49205;44.868;38.140;2023-02-15T00:00:23;4.10;93.80
62853;DHT22;49205;44.868;38.140;2023-02-15T00:02:52;4.10;93.80
62853;DHT22;49205;44.868;38.140;2023-02-15T00:05:21;4.10;93.90
62853;DHT22;49205;44.868;38.140;2023-02-15T00:07:50;4.10;93.80
62853;DHT22;49205;44.868;38.140;2023-02-15T00:10:19;4.10;93.80
62853;DHT22;49205;44.868;38.140;2023-02-15T00:12:48;4.10;93.60
62853;DHT22;49205;44.868;38.140;2023-02-15T00:15:18;4.10;93.60
62853;DHT22;49205;44.868;38.140;2023-02-15T00:17:47;4.00;93.20
62853;DHT22;49205;44.868;38.140;2023-02-15T00:20:16;3.80;93.20
62853;DHT22;49205;44.868;38.140;2023-02-15T00:22:46;3.70;93.20
62853;DHT22;49205;44.868;38.140;2023-02-15T00:25:15;3.60;93.30
62853;DHT22;49205;44.868;38.140;2023-02-15T00:27:44;3.50;93.40
62853;DHT22;49205;44.868;38.140;2023-02-15T00:30:13;3.40;93.50
62853;DHT22;49205;44.868;38.140;2023-02-15T00:32:42;3.30;93.70
62853;DHT22;49205;44.868;38.140;2023-02-15T00:35:12;3.20;93.80
62853;DHT22;49205;44.868;38.140;2023-02-15T00:37:41;3.20;93.90
62853;DHT22;49205;44.868;38.140;2023-02-15T00:40:10;3.20;93.90
62853;DHT22;49205;44.868;38.140;2023-02-15T00:42:39;3.10;93.90
62853;DHT22;49205;44.868;38.140;2023-02-15T00:45:09;3.10;94.00
62853;DHT22;49205;44.868;38.140;2023-02-15T00:47:38;3.10;94.00
62853;DHT22;49205;44.868;38.140;2023-02-15T00:50:24;3.10;94.10
62853;DHT22;49205;44.868;38.140;2023-02-15T00:52:38;3.10;94.10
62853;DHT22;49205;44.868;38.140;2023-02-15T00:55:07;3.10;94.00
62853;DHT22;49205;44.868;38.140;2023-02-15T00:57:36;3.00;94.10
62853;DHT22;49205;44.868;38.140;2023-02-15T01:00:06;3.10;94.20
62853;DHT22;49205;44.868;38.140;2023-02-15T01:02:35;3.10;94.20
62853;DHT22;49205;44.868;38.140;2023-02-15T01:05:04;3.10;94.10
62853;DHT22;49205;44.868;38.140;2023-02-15T01:07:34;3.00;94.10
62853;DHT22;49205;44.868;38.140;2023-02-15T01:10:04;3.00;94.10
62853;DHT22;49205;44.868;38.140;2023-02-15T01:12:33;3.10;94.20
62853;DHT22;49205;44.868;38.140;2023-02-15T01:15:04;3.00;94.20
62853;DHT22;49205;44.868;38.140;2023-02-15T01:17:34;3.00;94.30
62853;DHT22;49205;44.868;38.140;2023-02-15T01:20:05;3.00;94.30
62853;DHT22;49205;44.868;38.140;2023-02-15T01:22:34;2.90;94.30
62853;DHT22;49205;44.868;38.140;2023-02-15T01:25:03;2.90;94.20
62853;DHT22;49205;44.868;38.140;2023-02-15T01:27:32;2.90;94.20
62853;DHT22;49205;44.868;38.140;2023-02-15T01:30:01;2.80;94.30
62853;DHT22;49205;44.868;38.140;2023-02-15T01:32:32;2.80;94.20
62853;DHT22;49205;44.868;38.140;2023-02-15T01:35:02;2.70;94.30
62853;DHT22;49205;44.868;38.140;2023-02-15T01:37:32;2.70;94.30
62853;DHT22;49205;44.868;38.140;2023-02-15T01:40:03;2.60;94.30
62853;DHT22;49205;44.868;38.140;2023-02-15T01:42:32;2.70;94.40
62853;DHT22;49205;44.868;38.140;2023-02-15T01:45:04;2.60;94.40
62853;DHT22;49205;44.868;38.140;2023-02-15T01:50:24;2.80;94.50
62853;DHT22;49205;44.868;38.140;2023-02-15T01:52:51;2.90;94.40
62853;DHT22;49205;44.868;38.140;2023-02-15T01:55:21;2.90;94.30
62853;DHT22;49205;44.868;38.140;2023-02-15T01:57:51;2.90;94.10
62853;DHT22;49205;44.868;38.140;2023-02-15T02:00:21;2.80;94.20
62853;DHT22;49205;44.868;38.140;2023-02-15T02:02:53;2.70;94.30
62853;DHT22;49205;44.868;38.140;2023-02-15T02:05:24;2.70;94.30
62853;DHT22;49205;44.868;38.140;2023-02-15T02:07:57;2.60;94.40
62853;DHT22;49205;44.868;38.140;2023-02-15T02:10:26;2.60;94.50
62853;DHT22;49205;44.868;38.140;2023-02-15T02:13:02;2.60;94.70
62853;DHT22;49205;44.868;38.140;2023-02-15T02:15:40;2.60;94.50
62853;DHT22;49205;44.868;38.140;2023-02-15T02:21:34;2.70;94.50
62853;DHT22;49205;44.868;38.140;2023-02-15T02:27:44;2.70;94.50
62853;DHT22;49205;44.868;38.140;2023-02-15T02:35:22;2.80;94.60
62853;DHT22;49205;44.868;38.140;2023-02-15T02:43:15;2.80;94.40
62853;DHT22;49205;44.868;38.140;2023-02-15T02:45:55;2.80;94.60
62853;DHT22;49205;44.868;38.140;2023-02-15T02:48:23;2.80;94.50
62853;DHT22;49205;44.868;38.140;2023-02-15T02:50:52;2.80;94.60
62853;DHT22;49205;44.868;38.140;2023-02-15T02:53:21;2.80;94.50
62853;DHT22;49205;44.868;38.140;2023-02-15T02:55:53;2.70;94.40
62853;DHT22;49205;44.868;38.140;2023-02-15T03:01:13;2.70;94.50
62853;DHT22;49205;44.868;38.140;2023-02-15T03:03:47;2.70;94.60
62853;DHT22;49205;44.868;38.140;2023-02-15T03:06:20;2.80;94.70
62853;DHT22;49205;44.868;38.140;2023-02-15T03:08:56;2.70;94.60
62853;DHT22;49205;44.868;38.140;2023-02-15T03:11:20;2.70;94.50
62853;DHT22;49205;44.868;38.140;2023-02-15T03:13:51;2.70;94.50
62853;DHT22;49205;44.868;38.140;2023-02-15T03:16:21;2.80;94.70
62853;DHT22;49205;44.868;38.140;2023-02-15T03:19:16;2.70;94.60
62853;DHT22;49205;44.868;38.140;2023-02-15T03:21:48;2.70;94.50
62853;DHT22;49205;44.868;38.140;2023-02-15T03:24:24;2.80;94.50
62853;DHT22;49205;44.868;38.140;2023-02-15T03:26:55;2.80;94.40
62853;DHT22;49205;44.868;38.140;2023-02-15T03:29:28;2.80;94.50
62853;DHT22;49205;44.868;38.140;2023-02-15T03:32:02;2.80;94.60
62853;DHT22;49205;44.868;38.140;2023-02-15T03:34:31;2.70;94.50
62853;DHT22;49205;44.868;38.140;2023-02-15T03:37:13;2.70;94.60
62853;DHT22;49205;44.868;38.140;2023-02-15T03:39:56;2.70;94.70
62853;DHT22;49205;44.868;38.140;2023-02-15T03:42:32;2.70;94.50
62853;DHT22;49205;44.868;38.140;2023-02-15T03:45:13;2.70;94.60
62853;DHT22;49205;44.868;38.140;2023-02-15T03:47:38;2.70;94.30
62853;DHT22;49205;44.868;38.140;2023-02-15T03:50:16;2.70;94.30
62853;DHT22;49205;44.868;38.140;2023-02-15T03:53:06;2.70;94.50
62853;DHT22;49205;44.868;38.140;2023-02-15T03:55:33;2.70;94.50
62853;DHT22;49205;44.868;38.140;2023-02-15T03:58:02;2.70;94.30
62853;DHT22;49205;44.868;38.140;2023-02-15T04:00:57;2.70;94.30
62853;DHT22;49205;44.868;38.140;2023-02-15T04:04:07;2.70;94.50
62853;DHT22;49205;44.868;38.140;2023-02-15T04:06:32;2.70;94.30
62853;DHT22;49205;44.868;38.140;2023-02-15T04:09:01;2.70;94.40
62853;DHT22;49205;44.868;38.140;2023-02-15T04:11:48;2.70;94.50
62853;DHT22;49205;44.868;38.140;2023-02-15T04:14:19;2.70;94.20
62853;DHT22;49205;44.868;38.140;2023-02-15T04:17:08;2.80;94.60
62853;DHT22;49205;44.868;38.140;2023-02-15T04:19:37;2.70;94.60
62853;DHT22;49205;44.868;38.140;2023-02-15T04:22:24;2.70;94.40
62853;DHT22;49205;44.868;38.140;2023-02-15T04:25:11;2.70;94.40
62853;DHT22;49205;44.868;38.140;2023-02-15T04:27:48;2.70;94.40
62853;DHT22;49205;44.868;38.140;2023-02-15T04:30:18;2.70;94.50
62853;DHT22;49205;44.868;38.140;2023-02-15T04:32:47;2.70;94.30
62853;DHT22;49205;44.868;38.140;2023-02-15T04:35:16;2.80;94.40
62853;DHT22;49205;44.868;38.140;2023-02-15T04:37:45;2.80;94.30
62853;DHT22;49205;44.868;38.140;2023-02-15T04:40:15;2.90;94.30
62853;DHT22;49205;44.868;38.140;2023-02-15T04:42:46;2.90;94.20
62853;DHT22;49205;44.868;38.140;2023-02-15T04:45:15;2.90;94.30
62853;DHT22;49205;44.868;38.140;2023-02-15T04:47:44;2.90;94.30
62853;DHT22;49205;44.868;38.140;2023-02-15T04:50:13;2.90;94.20
62853;DHT22;49205;44.868;38.140;2023-02-15T04:52:43;2.90;94.30
62853;DHT22;49205;44.868;38.140;2023-02-15T04:55:11;2.80;94.20
62853;DHT22;49205;44.868;38.140;2023-02-15T04:57:41;2.80;94.50
62853;DHT22;49205;44.868;38.140;2023-02-15T05:00:11;2.80;94.50
62853;DHT22;49205;44.868;38.140;2023-02-15T05:02:40;2.80;94.40
62853;DHT22;49205;44.868;38.140;2023-02-15T05:05:09;2.70;94.60
62853;DHT22;49205;44.868;38.140;2023-02-15T05:07:39;2.70;94.40
62853;DHT22;49205;44.868;38.140;2023-02-15T05:10:09;2.70;94.50
62853;DHT22;49205;44.868;38.140;2023-02-15T05:12:38;2.70;94.40
62853;DHT22;49205;44.868;38.140;2023-02-15T05:15:07;2.70;94.60
62853;DHT22;49205;44.868;38.140;2023-02-15T05:17:36;2.70;94.50
62853;DHT22;49205;44.868;38.140;2023-02-15T05:20:06;2.60;94.70
62853;DHT22;49205;44.868;38.140;2023-02-15T05:22:35;2.60;94.70
62853;DHT22;49205;44.868;38.140;2023-02-15T05:25:04;2.60;94.60
62853;DHT22;49205;44.868;38.140;2023-02-15T05:27:51;2.60;94.80
62853;DHT22;49205;44.868;38.140;2023-02-15T05:30:38;2.50;94.70
62853;DHT22;49205;44.868;38.140;2023-02-15T05:33:07;2.50;95.00
62853;DHT22;49205;44.868;38.140;2023-02-15T05:35:36;2.50;95.00
62853;DHT22;49205;44.868;38.140;2023-02-15T05:38:05;2.50;94.70
62853;DHT22;49205;44.868;38.140;2023-02-15T05:40:34;2.50;94.90
62853;DHT22;49205;44.868;38.140;2023-02-15T05:43:03;2.50;95.00
62853;DHT22;49205;44.868;38.140;2023-02-15T05:45:32;2.40;94.70
62853;DHT22;49205;44.868;38.140;2023-02-15T05:48:01;2.40;94.80
62853;DHT22;49205;44.868;38.140;2023-02-15T05:50:30;2.40;95.10
62853;DHT22;49205;44.868;38.140;2023-02-15T05:53:00;2.30;95.20
62853;DHT22;49205;44.868;38.140;2023-02-15T05:55:29;2.30;95.40
62853;DHT22;49205;44.868;38.140;2023-02-15T05:57:58;2.30;95.40
62853;DHT22;49205;44.868;38.140;2023-02-15T06:00:27;2.20;95.40
62853;DHT22;49205;44.868;38.140;2023-02-15T06:02:56;2.20;95.50
62853;DHT22;49205;44.868;38.140;2023-02-15T06:05:25;2.20;95.70
62853;DHT22;49205;44.868;38.140;2023-02-15T06:07:54;2.10;95.70
62853;DHT22;49205;44.868;38.140;2023-02-15T06:10:23;2.10;95.60
62853;DHT22;49205;44.868;38.140;2023-02-15T06:12:53;2.10;95.80
62853;DHT22;49205;44.868;38.140;2023-02-15T06:15:23;2.10;95.80
62853;DHT22;49205;44.868;38.140;2023-02-15T06:17:52;2.10;95.70
62853;DHT22;49205;44.868;38.140;2023-02-15T06:20:21;2.10;95.60
62853;DHT22;49205;44.868;38.140;2023-02-15T06:22:50;2.10;95.90
62853;DHT22;49205;44.868;38.140;2023-02-15T06:25:18;2.20;95.80
62853;DHT22;49205;44.868;38.140;2023-02-15T06:27:49;2.10;95.50
62853;DHT22;49205;44.868;38.140;2023-02-15T06:30:18;2.20;95.40
62853;DHT22;49205;44.868;38.140;2023-02-15T06:32:47;2.20;95.60
62853;DHT22;49205;44.868;38.140;2023-02-15T06:35:16;2.20;95.80
62853;DHT22;49205;44.868;38.140;2023-02-15T06:37:47;2.10;95.80
62853;DHT22;49205;44.868;38.140;2023-02-15T06:40:16;2.20;95.80
62853;DHT22;49205;44.868;38.140;2023-02-15T06:42:45;2.10;95.90
62853;DHT22;49205;44.868;38.140;2023-02-15T06:45:14;2.10;95.90
62853;DHT22;49205;44.868;38.140;2023-02-15T06:47:43;2.10;95.80
62853;DHT22;49205;44.868;38.140;2023-02-15T06:50:12;2.10;95.80
62853;DHT22;49205;44.868;38.140;2023-02-15T06:52:41;2.10;95.80
62853;DHT22;49205;44.868;38.140;2023-02-15T06:55:10;2.10;95.90
62853;DHT22;49205;44.868;38.140;2023-02-15T06:57:39;2.00;96.00
62853;DHT22;49205;44.868;38.140;2023-02-15T07:00:09;2.10;96.10
62853;DHT22;49205;44.868;38.140;2023-02-15T07:02:38;2.10;96.00
62853;DHT22;49205;44.868;38.140;2023-02-15T07:05:07;2.10;96.00
62853;DHT22;49205;44.868;38.140;2023-02-15T07:07:36;2.10;95.90
62853;DHT22;49205;44.868;38.140;2023-02-15T07:10:06;2.10;95.90
62853;DHT22;49205;44.868;38.140;2023-02-15T07:12:35;2.10;95.90
62853;DHT22;49205;44.868;38.140;2023-02-15T07:15:11;2.10;95.80
62853;DHT22;49205;44.868;38.140;2023-02-15T07:17:41;2.10;95.80
62853;DHT22;49205;44.868;38.140;2023-02-15T07:20:13;2.20;95.80
62853;DHT22;49205;44.868;38.140;2023-02-15T07:22:42;2.20;95.70
62853;DHT22;49205;44.868;38.140;2023-02-15T07:25:12;2.20;95.70
62853;DHT22;49205;44.868;38.140;2023-02-15T07:27:41;2.30;95.60
62853;DHT22;49205;44.868;38.140;2023-02-15T07:30:13;2.30;95.60
62853;DHT22;49205;44.868;38.140;2023-02-15T07:32:43;2.30;95.50
62853;DHT22;49205;44.868;38.140;2023-02-15T07:35:29;2.30;95.60
62853;DHT22;49205;44.868;38.140;2023-02-15T07:37:58;2.40;95.40
62853;DHT22;49205;44.868;38.140;2023-02-15T07:40:27;2.40;95.40
62853;DHT22;49205;44.868;38.140;2023-02-15T07:42:57;2.50;95.30
62853;DHT22;49205;44.868;38.140;2023-02-15T07:45:26;2.60;95.40
62853;DHT22;49205;44.868;38.140;2023-02-15T07:47:55;2.60;95.20
62853;DHT22;49205;44.868;38.140;2023-02-15T07:50:24;2.70;95.10
62853;DHT22;49205;44.868;38.140;2023-02-15T07:52:53;2.80;95.00
62853;DHT22;49205;44.868;38.140;2023-02-15T07:55:22;2.80;94.60
62853;DHT22;49205;44.868;38.140;2023-02-15T07:57:52;2.80;94.50
62853;DHT22;49205;44.868;38.140;2023-02-15T08:00:22;2.80;94.60
62853;DHT22;49205;44.868;38.140;2023-02-15T08:02:54;2.80;94.60
62853;DHT22;49205;44.868;38.140;2023-02-15T08:05:43;2.80;94.60
62853;DHT22;49205;44.868;38.140;2023-02-15T08:08:13;2.80;94.60
62853;DHT22;49205;44.868;38.140;2023-02-15T08:10:43;2.90;94.60
62853;DHT22;49205;44.868;38.140;2023-02-15T08:13:23;2.80;94.60
62853;DHT22;49205;44.868;38.140;2023-02-15T08:15:52;2.80;94.30
62853;DHT22;49205;44.868;38.140;2023-02-15T08:18:21;2.90;94.60
62853;DHT22;49205;44.868;38.140;2023-02-15T08:20:50;2.90;94.80
62853;DHT22;49205;44.868;38.140;2023-02-15T08:23:19;3.00;94.30
62853;DHT22;49205;44.868;38.140;2023-02-15T08:25:48;3.00;93.80
62853;DHT22;49205;44.868;38.140;2023-02-15T08:28:17;2.90;93.70
62853;DHT22;49205;44.868;38.140;2023-02-15T08:30:46;2.90;93.60
62853;DHT22;49205;44.868;38.140;2023-02-15T08:33:15;2.80;93.80
62853;DHT22;49205;44.868;38.140;2023-02-15T08:35:45;2.80;94.00
62853;DHT22;49205;44.868;38.140;2023-02-15T08:38:15;2.80;94.00
62853;DHT22;49205;44.868;38.140;2023-02-15T08:40:43;2.80;93.80
62853;DHT22;49205;44.868;38.140;2023-02-15T08:43:12;2.80;94.00
62853;DHT22;49205;44.868;38.140;2023-02-15T08:45:41;2.80;94.10
62853;DHT22;49205;44.868;38.140;2023-02-15T08:48:11;2.80;94.20
62853;DHT22;49205;44.868;38.140;2023-02-15T08:50:39;2.90;94.00
62853;DHT22;49205;44.868;38.140;2023-02-15T08:53:10;2.90;93.70
62853;DHT22;49205;44.868;38.140;2023-02-15T08:55:39;2.90;94.10
62853;DHT22;49205;44.868;38.140;2023-02-15T08:58:08;3.00;93.90
62853;DHT22;49205;44.868;38.140;2023-02-15T09:00:37;3.00;93.70
62853;DHT22;49205;44.868;38.140;2023-02-15T09:03:06;3.00;93.80
62853;DHT22;49205;44.868;38.140;2023-02-15T09:05:35;3.10;94.00
62853;DHT22;49205;44.868;38.140;2023-02-15T09:08:04;3.10;93.70
62853;DHT22;49205;44.868;38.140;2023-02-15T09:10:33;3.20;93.50
62853;DHT22;49205;44.868;38.140;2023-02-15T09:13:02;3.20;93.60
62853;DHT22;49205;44.868;38.140;2023-02-15T09:15:31;3.20;93.80
62853;DHT22;49205;44.868;38.140;2023-02-15T09:18:00;3.20;93.90
62853;DHT22;49205;44.868;38.140;2023-02-15T09:20:30;3.20;93.90
62853;DHT22;49205;44.868;38.140;2023-02-15T09:22:59;3.30;94.10
62853;DHT22;49205;44.868;38.140;2023-02-15T09:25:28;3.30;93.60
62853;DHT22;49205;44.868;38.140;2023-02-15T09:27:57;3.40;93.80
